• Join FlightAware (Why Join?)
  • Login
  • US Flag 
04:34AM EST


 

Airport Tracker/Info


-or-


 

Live Flight TrackerFlight Track Log ✈ AAR8731 ✈ 14-Apr-2014 ✈ RKSS / GMP - RKJY / RSU

Flight Track Log - Related Links

Times and Time Zones

All times are in EDT time to prevent confusion due to time zone crossing. See the AAR8731 flight status page for this flight to view local times or setup timezone preferences in your user account.

Time Position Orientation Groundspeed Altitude Reporting Facility
EDT Latitude Longitude Course Direction KTS MPH feet Rate Location/Type
06:33PM 37.5808 126.7650 360° North 167 192 2,100  Level FlightAware ADS-B (SBBH / PLU)
06:34PM 37.6110 126.7238 313° West 219 252 3,900 1,920 Climbing FlightAware ADS-B (SBBH / PLU)
06:34PM 37.6198 126.7063 360° North 243 280 4,500 2,400 Climbing FlightAware ADS-B (SBBH / PLU)
06:35PM 37.6111 126.6610 360° North 251 289 5,900 2,760 Climbing FlightAware ADS-B (SBBH / PLU)
06:35PM 37.5995 126.6452 360° North 275 316 6,700 3,480 Climbing FlightAware ADS-B (SBBH / PLU)
06:35PM 37.5694 126.6049 227° Southwest 282 325 8,600 3,240 Climbing FlightAware ADS-B (SBBH / PLU)
06:36PM 37.5289 126.5561 360° North 301 346 10,800 2,160 Climbing FlightAware ADS-B (SBBH / PLU)
06:37PM 37.5005 126.5467 360° North 301 346 11,400 2,460 Climbing FlightAware ADS-B (SBBH / PLU)
06:38PM 37.2917 126.6052 360° North 363 418 16,600 2,760 Climbing FlightAware ADS-B (SBBH / PLU)
06:39PM 37.2526 126.6181 360° North 368 423 17,500 1,740 Climbing FlightAware ADS-B (SBBH / PLU)
06:39PM 37.1765 126.6431 166° South 399 459 18,400 1,620 Climbing FlightAware ADS-B (SBBH / PLU)
06:40PM 37.1633 126.6476 360° North 400 460 18,700 2,520 Climbing FlightAware ADS-B (SBBH / PLU)
06:42PM 37.0142 126.7116 161° South  Level Estimated
06:43PM 36.9384 126.7440 161° South  Level Estimated
06:44PM 36.8625 126.7764 161° South  Level Estimated
06:45PM 36.7867 126.8087 161° South  Level Estimated
06:46PM 36.7108 126.8409 161° South  Level Estimated
06:47PM 36.6349 126.8731 161° South  Level Estimated
06:48PM 36.5590 126.9052 161° South  Level Estimated
06:49PM 36.4832 126.9372 161° South  Level Estimated
06:50PM 36.4073 126.9692 161° South  Level Estimated
06:51PM 36.3313 127.0011 161° South  Level Estimated
06:52PM 36.2554 127.0330 161° South  Level Estimated
06:53PM 36.1795 127.0648 161° South  Level Estimated
06:54PM 36.1036 127.0965 161° South  Level Estimated
06:55PM 36.0276 127.1282 161° South  Level Estimated
06:56PM 35.9517 127.1598 161° South  Level Estimated
06:57PM 35.8758 127.1913 161° South  Level Estimated
06:58PM 35.7998 127.2228 161° South  Level Estimated
06:59PM 35.7238 127.2542 161° South  Level Estimated
07:00PM 35.6478 127.2856 161° South  Level Estimated
07:01PM 35.5718 127.3169 161° South  Level Estimated
07:02PM 35.4958 127.3481 161° South  Level Estimated
07:03PM 35.4198 127.3793 162° South  Level Estimated
07:04PM 35.3438 127.4105 162° South  Level Estimated
07:05PM 35.2678 127.4415 162° South  Level Estimated
07:06PM 35.1918 127.4725 162° South  Level Estimated
07:07PM 35.1158 127.5035 162° South  Level Estimated
07:08PM 35.0397 127.5344 162° South  Level Estimated
07:09PM 34.9637 127.5652 162° South  Level Estimated
07:10PM 34.8876 127.5960 162° South  Level Estimated
07:11PM 34.8398 127.6153 162° South  Level Estimated
07:12PM 34.8398 127.6153 North  Level Estimated
07:13PM 34.8398 127.6153 North  Level Estimated
07:14PM 34.8398 127.6153 North  Level Estimated
07:15PM 34.8398 127.6153 North  Level Estimated
07:16PM 34.8398 127.6153 North  Level Estimated
07:17PM 34.8398 127.6153 North  Level Estimated
07:18PM 34.8398 127.6153 North  Level Estimated
07:19PM 34.8398 127.6153 North  Level Estimated
07:20PM 34.8398 127.6153 North  Level Estimated
07:21PM 34.8398 127.6153 North  Level Estimated
07:22PM 34.8398 127.6153 North  Level Estimated
07:23PM 34.8398 127.6153 North  Level Estimated
07:24PM 34.8398 127.6153 North  Level Estimated